<?xml version="1.0" encoding="UTF-8" standalone="no" ?>
<gpx xmlns="http://www.topografix.com/GPX/1/1" xmlns:xsi="http://www.w3.org/2001/XMLSchema-instance" xsi:schemaLocation="http://www.topografix.com/GPX/1/1 http://www.topografix.com/GPX/1/1/gpx.xsd" version="1.1" creator="VisuGPX - https://www.visugpx.com">
  <metadata>
    <name>14 mai 2022 10:10:56</name>
    <desc><![CDATA[Bourron Marlotte La grotte Beatrix]]></desc>
  </metadata>
  <trk>
    <name><![CDATA[14 mai 2022 10:10:56]]></name>
    <trkseg>
      <trkpt lat="48.35369" lon="2.72813">
        <ele>113.86</ele>
        <time>2022-05-14T08:10:56.860Z</time>
      </trkpt>
      <trkpt lat="48.35378" lon="2.72817">
        <ele>133.41</ele>
        <time>2022-05-14T08:11:02.999Z</time>
      </trkpt>
      <trkpt lat="48.35385" lon="2.72816">
        <ele>135.08</ele>
        <time>2022-05-14T08:13:03.999Z</time>
      </trkpt>
      <trkpt lat="48.35377" lon="2.72824">
        <ele>137.05</ele>
        <time>2022-05-14T08:14:23.999Z</time>
      </trkpt>
      <trkpt lat="48.3537" lon="2.72833">
        <ele>137.74</ele>
        <time>2022-05-14T08:14:31.999Z</time>
      </trkpt>
      <trkpt lat="48.35363" lon="2.72843">
        <ele>138.01</ele>
        <time>2022-05-14T08:14:40.999Z</time>
      </trkpt>
      <trkpt lat="48.35357" lon="2.72854">
        <ele>137.92</ele>
        <time>2022-05-14T08:15:37.999Z</time>
      </trkpt>
      <trkpt lat="48.3535" lon="2.72863">
        <ele>138.19</ele>
        <time>2022-05-14T08:15:45.999Z</time>
      </trkpt>
      <trkpt lat="48.35343" lon="2.72873">
        <ele>138.27</ele>
        <time>2022-05-14T08:15:54.999Z</time>
      </trkpt>
      <trkpt lat="48.3535" lon="2.72863">
        <ele>137.75</ele>
        <time>2022-05-14T08:16:13.999Z</time>
      </trkpt>
      <trkpt lat="48.35357" lon="2.72853">
        <ele>137.73</ele>
        <time>2022-05-14T08:16:20.999Z</time>
      </trkpt>
      <trkpt lat="48.35366" lon="2.72854">
        <ele>137.8</ele>
        <time>2022-05-14T08:16:30.999Z</time>
      </trkpt>
      <trkpt lat="48.35365" lon="2.72868">
        <ele>137.91</ele>
        <time>2022-05-14T08:16:39.999Z</time>
      </trkpt>
      <trkpt lat="48.35357" lon="2.72878">
        <ele>138.17</ele>
        <time>2022-05-14T08:16:47.999Z</time>
      </trkpt>
      <trkpt lat="48.35361" lon="2.72892">
        <ele>138.37</ele>
        <time>2022-05-14T08:16:55.999Z</time>
      </trkpt>
      <trkpt lat="48.35355" lon="2.72903">
        <ele>138.66</ele>
        <time>2022-05-14T08:17:08.999Z</time>
      </trkpt>
      <trkpt lat="48.35356" lon="2.72917">
        <ele>138.53</ele>
        <time>2022-05-14T08:17:16.999Z</time>
      </trkpt>
      <trkpt lat="48.35351" lon="2.72929">
        <ele>138.93</ele>
        <time>2022-05-14T08:17:28.999Z</time>
      </trkpt>
      <trkpt lat="48.35343" lon="2.72936">
        <ele>139.38</ele>
        <time>2022-05-14T08:17:38.999Z</time>
      </trkpt>
      <trkpt lat="48.35341" lon="2.72951">
        <ele>139.63</ele>
        <time>2022-05-14T08:17:51Z</time>
      </trkpt>
      <trkpt lat="48.35344" lon="2.72965">
        <ele>140.18</ele>
        <time>2022-05-14T08:18:00Z</time>
      </trkpt>
      <trkpt lat="48.35341" lon="2.7298">
        <ele>141.66</ele>
        <time>2022-05-14T08:18:09Z</time>
      </trkpt>
      <trkpt lat="48.35341" lon="2.72994">
        <ele>144.02</ele>
        <time>2022-05-14T08:18:33Z</time>
      </trkpt>
      <trkpt lat="48.3534" lon="2.73007">
        <ele>145.73</ele>
        <time>2022-05-14T08:18:50Z</time>
      </trkpt>
      <trkpt lat="48.35338" lon="2.7302">
        <ele>146.08</ele>
        <time>2022-05-14T08:19:18Z</time>
      </trkpt>
      <trkpt lat="48.35342" lon="2.73033">
        <ele>146.62</ele>
        <time>2022-05-14T08:19:31Z</time>
      </trkpt>
      <trkpt lat="48.3534" lon="2.73047">
        <ele>147.24</ele>
        <time>2022-05-14T08:19:42Z</time>
      </trkpt>
      <trkpt lat="48.35341" lon="2.73062">
        <ele>147.77</ele>
        <time>2022-05-14T08:19:51Z</time>
      </trkpt>
      <trkpt lat="48.35342" lon="2.73076">
        <ele>148.8</ele>
        <time>2022-05-14T08:20:08Z</time>
      </trkpt>
      <trkpt lat="48.35351" lon="2.73082">
        <ele>149.17</ele>
        <time>2022-05-14T08:20:17Z</time>
      </trkpt>
      <trkpt lat="48.35352" lon="2.73096">
        <ele>149.97</ele>
        <time>2022-05-14T08:21:12Z</time>
      </trkpt>
      <trkpt lat="48.35344" lon="2.73086">
        <ele>150.93</ele>
        <time>2022-05-14T08:21:51Z</time>
      </trkpt>
      <trkpt lat="48.35342" lon="2.73072">
        <ele>152.22</ele>
        <time>2022-05-14T08:22:04Z</time>
      </trkpt>
      <trkpt lat="48.35341" lon="2.73058">
        <ele>151.7</ele>
        <time>2022-05-14T08:22:16Z</time>
      </trkpt>
      <trkpt lat="48.35341" lon="2.73043">
        <ele>152.03</ele>
        <time>2022-05-14T08:22:25Z</time>
      </trkpt>
      <trkpt lat="48.35342" lon="2.7303">
        <ele>151.57</ele>
        <time>2022-05-14T08:22:38Z</time>
      </trkpt>
      <trkpt lat="48.35341" lon="2.73016">
        <ele>151.57</ele>
        <time>2022-05-14T08:22:51Z</time>
      </trkpt>
      <trkpt lat="48.35348" lon="2.73027">
        <ele>149.8</ele>
        <time>2022-05-14T08:23:21Z</time>
      </trkpt>
      <trkpt lat="48.35342" lon="2.73038">
        <ele>149.55</ele>
        <time>2022-05-14T08:24:17Z</time>
      </trkpt>
      <trkpt lat="48.35335" lon="2.73047">
        <ele>150.73</ele>
        <time>2022-05-14T08:24:31Z</time>
      </trkpt>
      <trkpt lat="48.35333" lon="2.73061">
        <ele>151.75</ele>
        <time>2022-05-14T08:24:53Z</time>
      </trkpt>
      <trkpt lat="48.35342" lon="2.73063">
        <ele>151.11</ele>
        <time>2022-05-14T08:25:03Z</time>
      </trkpt>
      <trkpt lat="48.35346" lon="2.73076">
        <ele>152.92</ele>
        <time>2022-05-14T08:25:11Z</time>
      </trkpt>
      <trkpt lat="48.35353" lon="2.73085">
        <ele>152.84</ele>
        <time>2022-05-14T08:25:29Z</time>
      </trkpt>
      <trkpt lat="48.35344" lon="2.73085">
        <ele>151.86</ele>
        <time>2022-05-14T08:26:04Z</time>
      </trkpt>
      <trkpt lat="48.35349" lon="2.73096">
        <ele>152.76</ele>
        <time>2022-05-14T08:26:16Z</time>
      </trkpt>
      <trkpt lat="48.35347" lon="2.73111">
        <ele>153.29</ele>
        <time>2022-05-14T08:26:25Z</time>
      </trkpt>
      <trkpt lat="48.35348" lon="2.73125">
        <ele>153.76</ele>
        <time>2022-05-14T08:26:34Z</time>
      </trkpt>
      <trkpt lat="48.3535" lon="2.7314">
        <ele>153.19</ele>
        <time>2022-05-14T08:26:48Z</time>
      </trkpt>
      <trkpt lat="48.35349" lon="2.73153">
        <ele>153.32</ele>
        <time>2022-05-14T08:26:56Z</time>
      </trkpt>
      <trkpt lat="48.35348" lon="2.73168">
        <ele>154.15</ele>
        <time>2022-05-14T08:27:04Z</time>
      </trkpt>
      <trkpt lat="48.35344" lon="2.73181">
        <ele>153.93</ele>
        <time>2022-05-14T08:27:16Z</time>
      </trkpt>
      <trkpt lat="48.35337" lon="2.7319">
        <ele>156.13</ele>
        <time>2022-05-14T08:27:29Z</time>
      </trkpt>
      <trkpt lat="48.35336" lon="2.73206">
        <ele>156.29</ele>
        <time>2022-05-14T08:27:37Z</time>
      </trkpt>
      <trkpt lat="48.3534" lon="2.7322">
        <ele>157.51</ele>
        <time>2022-05-14T08:27:47Z</time>
      </trkpt>
      <trkpt lat="48.35338" lon="2.73233">
        <ele>158.52</ele>
        <time>2022-05-14T08:28:13Z</time>
      </trkpt>
      <trkpt lat="48.35332" lon="2.73244">
        <ele>158.66</ele>
        <time>2022-05-14T08:28:19Z</time>
      </trkpt>
      <trkpt lat="48.35323" lon="2.73251">
        <ele>160.49</ele>
        <time>2022-05-14T08:28:28Z</time>
      </trkpt>
      <trkpt lat="48.35322" lon="2.73266">
        <ele>162.66</ele>
        <time>2022-05-14T08:28:47Z</time>
      </trkpt>
      <trkpt lat="48.35314" lon="2.73274">
        <ele>164.91</ele>
        <time>2022-05-14T08:29:15Z</time>
      </trkpt>
      <trkpt lat="48.35305" lon="2.73279">
        <ele>164.89</ele>
        <time>2022-05-14T08:29:37Z</time>
      </trkpt>
      <trkpt lat="48.35297" lon="2.73288">
        <ele>164.26</ele>
        <time>2022-05-14T08:29:43Z</time>
      </trkpt>
      <trkpt lat="48.3529" lon="2.73298">
        <ele>164.71</ele>
        <time>2022-05-14T08:29:49Z</time>
      </trkpt>
      <trkpt lat="48.35289" lon="2.73311">
        <ele>164.63</ele>
        <time>2022-05-14T08:29:56Z</time>
      </trkpt>
      <trkpt lat="48.3529" lon="2.73326">
        <ele>164.42</ele>
        <time>2022-05-14T08:30:03Z</time>
      </trkpt>
      <trkpt lat="48.3529" lon="2.7334">
        <ele>162.71</ele>
        <time>2022-05-14T08:30:11Z</time>
      </trkpt>
      <trkpt lat="48.35292" lon="2.73354">
        <ele>165.66</ele>
        <time>2022-05-14T08:30:20.999Z</time>
      </trkpt>
      <trkpt lat="48.35293" lon="2.73368">
        <ele>166.77</ele>
        <time>2022-05-14T08:30:28.999Z</time>
      </trkpt>
      <trkpt lat="48.35288" lon="2.7338">
        <ele>168.31</ele>
        <time>2022-05-14T08:30:42.999Z</time>
      </trkpt>
      <trkpt lat="48.35285" lon="2.73395">
        <ele>166.83</ele>
        <time>2022-05-14T08:31:03.999Z</time>
      </trkpt>
      <trkpt lat="48.35283" lon="2.73409">
        <ele>166.81</ele>
        <time>2022-05-14T08:31:17.999Z</time>
      </trkpt>
      <trkpt lat="48.35283" lon="2.73423">
        <ele>169.23</ele>
        <time>2022-05-14T08:31:58.999Z</time>
      </trkpt>
      <trkpt lat="48.35288" lon="2.73435">
        <ele>169.36</ele>
        <time>2022-05-14T08:32:55.999Z</time>
      </trkpt>
      <trkpt lat="48.35294" lon="2.73445">
        <ele>169.32</ele>
        <time>2022-05-14T08:33:07.999Z</time>
      </trkpt>
      <trkpt lat="48.35302" lon="2.73453">
        <ele>168.7</ele>
        <time>2022-05-14T08:33:12.999Z</time>
      </trkpt>
      <trkpt lat="48.3531" lon="2.73459">
        <ele>168.32</ele>
        <time>2022-05-14T08:33:17.999Z</time>
      </trkpt>
      <trkpt lat="48.35319" lon="2.73468">
        <ele>167.68</ele>
        <time>2022-05-14T08:33:25.999Z</time>
      </trkpt>
      <trkpt lat="48.35327" lon="2.73476">
        <ele>166.13</ele>
        <time>2022-05-14T08:33:48.999Z</time>
      </trkpt>
      <trkpt lat="48.35332" lon="2.73488">
        <ele>167.32</ele>
        <time>2022-05-14T08:33:58.999Z</time>
      </trkpt>
      <trkpt lat="48.35339" lon="2.73497">
        <ele>166.95</ele>
        <time>2022-05-14T08:34:11.999Z</time>
      </trkpt>
      <trkpt lat="48.35344" lon="2.73509">
        <ele>167.33</ele>
        <time>2022-05-14T08:34:31.999Z</time>
      </trkpt>
      <trkpt lat="48.35343" lon="2.73523">
        <ele>167.39</ele>
        <time>2022-05-14T08:34:38.999Z</time>
      </trkpt>
      <trkpt lat="48.35346" lon="2.73537">
        <ele>170.18</ele>
        <time>2022-05-14T08:35:07.999Z</time>
      </trkpt>
      <trkpt lat="48.35341" lon="2.73549">
        <ele>169.81</ele>
        <time>2022-05-14T08:35:53.999Z</time>
      </trkpt>
      <trkpt lat="48.35345" lon="2.73561">
        <ele>169.27</ele>
        <time>2022-05-14T08:36:18.999Z</time>
      </trkpt>
      <trkpt lat="48.35352" lon="2.7357">
        <ele>168.51</ele>
        <time>2022-05-14T08:36:38.999Z</time>
      </trkpt>
      <trkpt lat="48.35361" lon="2.7358">
        <ele>167.29</ele>
        <time>2022-05-14T08:36:53.999Z</time>
      </trkpt>
      <trkpt lat="48.3537" lon="2.73583">
        <ele>168.94</ele>
        <time>2022-05-14T08:37:03.999Z</time>
      </trkpt>
      <trkpt lat="48.35377" lon="2.73572">
        <ele>168.88</ele>
        <time>2022-05-14T08:37:26.999Z</time>
      </trkpt>
      <trkpt lat="48.35384" lon="2.73562">
        <ele>174.24</ele>
        <time>2022-05-14T08:37:36.999Z</time>
      </trkpt>
      <trkpt lat="48.35391" lon="2.73553">
        <ele>174.25</ele>
        <time>2022-05-14T08:37:53.999Z</time>
      </trkpt>
      <trkpt lat="48.35395" lon="2.7354">
        <ele>175.01</ele>
        <time>2022-05-14T08:38:09.999Z</time>
      </trkpt>
      <trkpt lat="48.35399" lon="2.73528">
        <ele>174.5</ele>
        <time>2022-05-14T08:38:19.999Z</time>
      </trkpt>
      <trkpt lat="48.35399" lon="2.73514">
        <ele>174.46</ele>
        <time>2022-05-14T08:38:28.999Z</time>
      </trkpt>
      <trkpt lat="48.35397" lon="2.73501">
        <ele>175</ele>
        <time>2022-05-14T08:38:37.999Z</time>
      </trkpt>
      <trkpt lat="48.35398" lon="2.73487">
        <ele>175.29</ele>
        <time>2022-05-14T08:38:51.999Z</time>
      </trkpt>
      <trkpt lat="48.35399" lon="2.73473">
        <ele>175.63</ele>
        <time>2022-05-14T08:39:04.999Z</time>
      </trkpt>
      <trkpt lat="48.35402" lon="2.7346">
        <ele>174.13</ele>
        <time>2022-05-14T08:39:16.999Z</time>
      </trkpt>
      <trkpt lat="48.35406" lon="2.73448">
        <ele>177.98</ele>
        <time>2022-05-14T08:39:38.999Z</time>
      </trkpt>
      <trkpt lat="48.35409" lon="2.73434">
        <ele>176.81</ele>
        <time>2022-05-14T08:39:51.999Z</time>
      </trkpt>
      <trkpt lat="48.35417" lon="2.73427">
        <ele>176.3</ele>
        <time>2022-05-14T08:40:42.999Z</time>
      </trkpt>
      <trkpt lat="48.35426" lon="2.7343">
        <ele>176.26</ele>
        <time>2022-05-14T08:41:40.999Z</time>
      </trkpt>
      <trkpt lat="48.35422" lon="2.73421">
        <ele>173.9</ele>
        <time>2022-05-14T08:43:41Z</time>
      </trkpt>
      <trkpt lat="48.35419" lon="2.73421">
        <ele>175.83</ele>
        <time>2022-05-14T08:45:42Z</time>
      </trkpt>
      <trkpt lat="48.3542" lon="2.73421">
        <ele>179.91</ele>
        <time>2022-05-14T08:47:43Z</time>
      </trkpt>
      <trkpt lat="48.35416" lon="2.73419">
        <ele>178.65</ele>
        <time>2022-05-14T08:49:44Z</time>
      </trkpt>
      <trkpt lat="48.35419" lon="2.73419">
        <ele>175.99</ele>
        <time>2022-05-14T08:51:45Z</time>
      </trkpt>
      <trkpt lat="48.35424" lon="2.73424">
        <ele>180.46</ele>
        <time>2022-05-14T08:53:46Z</time>
      </trkpt>
      <trkpt lat="48.35421" lon="2.73421">
        <ele>182.03</ele>
        <time>2022-05-14T08:55:46.999Z</time>
      </trkpt>
      <trkpt lat="48.35421" lon="2.73424">
        <ele>181.3</ele>
        <time>2022-05-14T08:57:47.999Z</time>
      </trkpt>
      <trkpt lat="48.35419" lon="2.73422">
        <ele>180.29</ele>
        <time>2022-05-14T08:59:48.999Z</time>
      </trkpt>
      <trkpt lat="48.35418" lon="2.73423">
        <ele>178.51</ele>
        <time>2022-05-14T09:01:49.999Z</time>
      </trkpt>
      <trkpt lat="48.35422" lon="2.73422">
        <ele>179.68</ele>
        <time>2022-05-14T09:03:50.999Z</time>
      </trkpt>
      <trkpt lat="48.35421" lon="2.73422">
        <ele>177.39</ele>
        <time>2022-05-14T09:05:51.999Z</time>
      </trkpt>
      <trkpt lat="48.35419" lon="2.73422">
        <ele>179.03</ele>
        <time>2022-05-14T09:07:52.999Z</time>
      </trkpt>
      <trkpt lat="48.3542" lon="2.73424">
        <ele>178.5</ele>
        <time>2022-05-14T09:09:53Z</time>
      </trkpt>
      <trkpt lat="48.35421" lon="2.73423">
        <ele>174.52</ele>
        <time>2022-05-14T09:11:54Z</time>
      </trkpt>
      <trkpt lat="48.35422" lon="2.73424">
        <ele>178.96</ele>
        <time>2022-05-14T09:13:55Z</time>
      </trkpt>
      <trkpt lat="48.35425" lon="2.73419">
        <ele>182</ele>
        <time>2022-05-14T09:15:56Z</time>
      </trkpt>
      <trkpt lat="48.35419" lon="2.73421">
        <ele>180.65</ele>
        <time>2022-05-14T09:17:57Z</time>
      </trkpt>
      <trkpt lat="48.35421" lon="2.73421">
        <ele>179.58</ele>
        <time>2022-05-14T09:19:58Z</time>
      </trkpt>
      <trkpt lat="48.35422" lon="2.7342">
        <ele>174.82</ele>
        <time>2022-05-14T09:21:58.999Z</time>
      </trkpt>
      <trkpt lat="48.3542" lon="2.7342">
        <ele>175.4</ele>
        <time>2022-05-14T09:23:59.999Z</time>
      </trkpt>
      <trkpt lat="48.35421" lon="2.73418">
        <ele>176.82</ele>
        <time>2022-05-14T09:26:00.999Z</time>
      </trkpt>
      <trkpt lat="48.35418" lon="2.73424">
        <ele>177.81</ele>
        <time>2022-05-14T09:28:01.999Z</time>
      </trkpt>
      <trkpt lat="48.35421" lon="2.73421">
        <ele>178.35</ele>
        <time>2022-05-14T09:30:02.999Z</time>
      </trkpt>
      <trkpt lat="48.3542" lon="2.73424">
        <ele>177.59</ele>
        <time>2022-05-14T09:32:03.999Z</time>
      </trkpt>
      <trkpt lat="48.35417" lon="2.73421">
        <ele>175.05</ele>
        <time>2022-05-14T09:34:04Z</time>
      </trkpt>
      <trkpt lat="48.35419" lon="2.73421">
        <ele>171.46</ele>
        <time>2022-05-14T09:36:05Z</time>
      </trkpt>
      <trkpt lat="48.35418" lon="2.73422">
        <ele>175.67</ele>
        <time>2022-05-14T09:38:06Z</time>
      </trkpt>
      <trkpt lat="48.35418" lon="2.73422">
        <ele>177.08</ele>
        <time>2022-05-14T09:40:07Z</time>
      </trkpt>
      <trkpt lat="48.35421" lon="2.73424">
        <ele>177.16</ele>
        <time>2022-05-14T09:42:08Z</time>
      </trkpt>
      <trkpt lat="48.35421" lon="2.73423">
        <ele>177.81</ele>
        <time>2022-05-14T09:44:09Z</time>
      </trkpt>
      <trkpt lat="48.35419" lon="2.73425">
        <ele>178.73</ele>
        <time>2022-05-14T09:46:10Z</time>
      </trkpt>
      <trkpt lat="48.35419" lon="2.73441">
        <ele>177.19</ele>
        <time>2022-05-14T09:47:09.999Z</time>
      </trkpt>
      <trkpt lat="48.35421" lon="2.73455">
        <ele>177.49</ele>
        <time>2022-05-14T09:47:17.999Z</time>
      </trkpt>
      <trkpt lat="48.35424" lon="2.73468">
        <ele>177.9</ele>
        <time>2022-05-14T09:47:26.999Z</time>
      </trkpt>
      <trkpt lat="48.35427" lon="2.73481">
        <ele>179.07</ele>
        <time>2022-05-14T09:47:34.999Z</time>
      </trkpt>
      <trkpt lat="48.3543" lon="2.73494">
        <ele>178.49</ele>
        <time>2022-05-14T09:47:50.999Z</time>
      </trkpt>
      <trkpt lat="48.35433" lon="2.73508">
        <ele>178.01</ele>
        <time>2022-05-14T09:47:57.999Z</time>
      </trkpt>
      <trkpt lat="48.35438" lon="2.73521">
        <ele>178.71</ele>
        <time>2022-05-14T09:48:04.999Z</time>
      </trkpt>
      <trkpt lat="48.35441" lon="2.73534">
        <ele>180.39</ele>
        <time>2022-05-14T09:48:17.999Z</time>
      </trkpt>
      <trkpt lat="48.35445" lon="2.73547">
        <ele>180.88</ele>
        <time>2022-05-14T09:48:23.999Z</time>
      </trkpt>
      <trkpt lat="48.35453" lon="2.73554">
        <ele>182.03</ele>
        <time>2022-05-14T09:48:33.999Z</time>
      </trkpt>
      <trkpt lat="48.35463" lon="2.73553">
        <ele>181.25</ele>
        <time>2022-05-14T09:48:43.999Z</time>
      </trkpt>
      <trkpt lat="48.35472" lon="2.73548">
        <ele>181.37</ele>
        <time>2022-05-14T09:48:53.999Z</time>
      </trkpt>
      <trkpt lat="48.3548" lon="2.73541">
        <ele>182</ele>
        <time>2022-05-14T09:49:16.999Z</time>
      </trkpt>
      <trkpt lat="48.35489" lon="2.73537">
        <ele>182.04</ele>
        <time>2022-05-14T09:49:30.999Z</time>
      </trkpt>
      <trkpt lat="48.35498" lon="2.73533">
        <ele>180.76</ele>
        <time>2022-05-14T09:49:40.999Z</time>
      </trkpt>
      <trkpt lat="48.35495" lon="2.7352">
        <ele>178.12</ele>
        <time>2022-05-14T09:50:09.999Z</time>
      </trkpt>
      <trkpt lat="48.35504" lon="2.73514">
        <ele>174.47</ele>
        <time>2022-05-14T09:50:31.999Z</time>
      </trkpt>
      <trkpt lat="48.35513" lon="2.73518">
        <ele>174.29</ele>
        <time>2022-05-14T09:50:44.999Z</time>
      </trkpt>
      <trkpt lat="48.35523" lon="2.73514">
        <ele>173</ele>
        <time>2022-05-14T09:50:51.999Z</time>
      </trkpt>
      <trkpt lat="48.35531" lon="2.73509">
        <ele>172.03</ele>
        <time>2022-05-14T09:51:07.999Z</time>
      </trkpt>
      <trkpt lat="48.35541" lon="2.73504">
        <ele>172.6</ele>
        <time>2022-05-14T09:51:17.999Z</time>
      </trkpt>
      <trkpt lat="48.35546" lon="2.73491">
        <ele>171.48</ele>
        <time>2022-05-14T09:51:25.999Z</time>
      </trkpt>
      <trkpt lat="48.35552" lon="2.73478">
        <ele>173.44</ele>
        <time>2022-05-14T09:51:36.999Z</time>
      </trkpt>
      <trkpt lat="48.35557" lon="2.73467">
        <ele>170.22</ele>
        <time>2022-05-14T09:51:44.999Z</time>
      </trkpt>
      <trkpt lat="48.35564" lon="2.73458">
        <ele>168.59</ele>
        <time>2022-05-14T09:51:54.999Z</time>
      </trkpt>
      <trkpt lat="48.35574" lon="2.73455">
        <ele>169.18</ele>
        <time>2022-05-14T09:52:03.999Z</time>
      </trkpt>
      <trkpt lat="48.35582" lon="2.73447">
        <ele>168.11</ele>
        <time>2022-05-14T09:52:12.999Z</time>
      </trkpt>
      <trkpt lat="48.3559" lon="2.73439">
        <ele>168.84</ele>
        <time>2022-05-14T09:52:23.999Z</time>
      </trkpt>
      <trkpt lat="48.35597" lon="2.73429">
        <ele>169.53</ele>
        <time>2022-05-14T09:52:34.999Z</time>
      </trkpt>
      <trkpt lat="48.35604" lon="2.7342">
        <ele>169.6</ele>
        <time>2022-05-14T09:52:49.999Z</time>
      </trkpt>
      <trkpt lat="48.356" lon="2.73407">
        <ele>170.17</ele>
        <time>2022-05-14T09:53:09.999Z</time>
      </trkpt>
      <trkpt lat="48.35602" lon="2.73393">
        <ele>169.06</ele>
        <time>2022-05-14T09:53:22.999Z</time>
      </trkpt>
      <trkpt lat="48.35607" lon="2.73382">
        <ele>171.75</ele>
        <time>2022-05-14T09:53:36.999Z</time>
      </trkpt>
      <trkpt lat="48.35598" lon="2.73382">
        <ele>174.28</ele>
        <time>2022-05-14T09:53:59.999Z</time>
      </trkpt>
      <trkpt lat="48.35588" lon="2.73384">
        <ele>174.57</ele>
        <time>2022-05-14T09:54:11.999Z</time>
      </trkpt>
      <trkpt lat="48.35579" lon="2.73383">
        <ele>174.59</ele>
        <time>2022-05-14T09:54:18.999Z</time>
      </trkpt>
      <trkpt lat="48.35569" lon="2.73384">
        <ele>175.31</ele>
        <time>2022-05-14T09:54:26.999Z</time>
      </trkpt>
      <trkpt lat="48.3556" lon="2.73379">
        <ele>175.71</ele>
        <time>2022-05-14T09:54:34.999Z</time>
      </trkpt>
      <trkpt lat="48.35551" lon="2.73373">
        <ele>175.33</ele>
        <time>2022-05-14T09:54:44.999Z</time>
      </trkpt>
      <trkpt lat="48.35543" lon="2.73366">
        <ele>176.26</ele>
        <time>2022-05-14T09:54:52.999Z</time>
      </trkpt>
      <trkpt lat="48.35538" lon="2.73354">
        <ele>177.29</ele>
        <time>2022-05-14T09:54:59.999Z</time>
      </trkpt>
      <trkpt lat="48.35538" lon="2.7334">
        <ele>176.52</ele>
        <time>2022-05-14T09:55:07.999Z</time>
      </trkpt>
      <trkpt lat="48.35542" lon="2.73327">
        <ele>178.47</ele>
        <time>2022-05-14T09:55:31.999Z</time>
      </trkpt>
      <trkpt lat="48.35551" lon="2.73328">
        <ele>176.76</ele>
        <time>2022-05-14T09:56:56.999Z</time>
      </trkpt>
      <trkpt lat="48.35559" lon="2.73321">
        <ele>177.19</ele>
        <time>2022-05-14T09:57:01.999Z</time>
      </trkpt>
      <trkpt lat="48.35561" lon="2.73306">
        <ele>176.4</ele>
        <time>2022-05-14T09:57:10.999Z</time>
      </trkpt>
      <trkpt lat="48.35561" lon="2.73292">
        <ele>177.37</ele>
        <time>2022-05-14T09:57:18.999Z</time>
      </trkpt>
      <trkpt lat="48.35558" lon="2.73279">
        <ele>177.55</ele>
        <time>2022-05-14T09:57:26.999Z</time>
      </trkpt>
      <trkpt lat="48.35551" lon="2.73269">
        <ele>177.24</ele>
        <time>2022-05-14T09:57:35.999Z</time>
      </trkpt>
      <trkpt lat="48.35552" lon="2.73255">
        <ele>175.72</ele>
        <time>2022-05-14T09:58:20.999Z</time>
      </trkpt>
      <trkpt lat="48.35556" lon="2.73241">
        <ele>176.1</ele>
        <time>2022-05-14T09:58:31.999Z</time>
      </trkpt>
      <trkpt lat="48.35562" lon="2.7323">
        <ele>176.6</ele>
        <time>2022-05-14T09:58:39.999Z</time>
      </trkpt>
      <trkpt lat="48.35568" lon="2.73219">
        <ele>177.14</ele>
        <time>2022-05-14T09:58:54.999Z</time>
      </trkpt>
      <trkpt lat="48.35574" lon="2.73209">
        <ele>176.83</ele>
        <time>2022-05-14T09:59:05.999Z</time>
      </trkpt>
      <trkpt lat="48.35574" lon="2.73195">
        <ele>177.59</ele>
        <time>2022-05-14T09:59:12.999Z</time>
      </trkpt>
      <trkpt lat="48.35575" lon="2.73181">
        <ele>178.47</ele>
        <time>2022-05-14T09:59:33.999Z</time>
      </trkpt>
      <trkpt lat="48.35579" lon="2.73167">
        <ele>177.88</ele>
        <time>2022-05-14T09:59:41.999Z</time>
      </trkpt>
      <trkpt lat="48.35585" lon="2.73155">
        <ele>178.53</ele>
        <time>2022-05-14T09:59:48Z</time>
      </trkpt>
      <trkpt lat="48.35592" lon="2.73145">
        <ele>178.64</ele>
        <time>2022-05-14T09:59:56Z</time>
      </trkpt>
      <trkpt lat="48.35596" lon="2.73131">
        <ele>179.19</ele>
        <time>2022-05-14T10:00:05Z</time>
      </trkpt>
      <trkpt lat="48.35589" lon="2.73121">
        <ele>178.86</ele>
        <time>2022-05-14T10:00:12Z</time>
      </trkpt>
      <trkpt lat="48.35582" lon="2.7311">
        <ele>178.09</ele>
        <time>2022-05-14T10:00:20Z</time>
      </trkpt>
      <trkpt lat="48.3559" lon="2.731">
        <ele>178</ele>
        <time>2022-05-14T10:01:13Z</time>
      </trkpt>
      <trkpt lat="48.356" lon="2.73102">
        <ele>177.7</ele>
        <time>2022-05-14T10:01:19Z</time>
      </trkpt>
      <trkpt lat="48.35609" lon="2.73099">
        <ele>177.68</ele>
        <time>2022-05-14T10:01:27Z</time>
      </trkpt>
      <trkpt lat="48.35617" lon="2.73109">
        <ele>177.93</ele>
        <time>2022-05-14T10:01:36Z</time>
      </trkpt>
      <trkpt lat="48.35626" lon="2.73113">
        <ele>177.7</ele>
        <time>2022-05-14T10:01:43Z</time>
      </trkpt>
      <trkpt lat="48.35635" lon="2.73115">
        <ele>178.35</ele>
        <time>2022-05-14T10:01:50Z</time>
      </trkpt>
      <trkpt lat="48.35644" lon="2.7311">
        <ele>178.24</ele>
        <time>2022-05-14T10:01:59Z</time>
      </trkpt>
      <trkpt lat="48.35653" lon="2.73102">
        <ele>178.03</ele>
        <time>2022-05-14T10:02:08Z</time>
      </trkpt>
      <trkpt lat="48.35656" lon="2.73088">
        <ele>176.81</ele>
        <time>2022-05-14T10:02:16Z</time>
      </trkpt>
      <trkpt lat="48.35659" lon="2.73074">
        <ele>176.11</ele>
        <time>2022-05-14T10:02:25Z</time>
      </trkpt>
      <trkpt lat="48.35663" lon="2.73061">
        <ele>176.94</ele>
        <time>2022-05-14T10:02:33Z</time>
      </trkpt>
      <trkpt lat="48.35671" lon="2.73055">
        <ele>177.78</ele>
        <time>2022-05-14T10:02:41Z</time>
      </trkpt>
      <trkpt lat="48.3568" lon="2.73049">
        <ele>176.54</ele>
        <time>2022-05-14T10:02:52Z</time>
      </trkpt>
      <trkpt lat="48.35689" lon="2.73043">
        <ele>176.75</ele>
        <time>2022-05-14T10:03:01Z</time>
      </trkpt>
      <trkpt lat="48.35698" lon="2.7304">
        <ele>177.48</ele>
        <time>2022-05-14T10:03:08Z</time>
      </trkpt>
      <trkpt lat="48.35707" lon="2.73034">
        <ele>177.73</ele>
        <time>2022-05-14T10:03:17Z</time>
      </trkpt>
      <trkpt lat="48.35709" lon="2.73048">
        <ele>177.3</ele>
        <time>2022-05-14T10:03:27Z</time>
      </trkpt>
      <trkpt lat="48.35709" lon="2.73063">
        <ele>177.95</ele>
        <time>2022-05-14T10:03:35Z</time>
      </trkpt>
      <trkpt lat="48.35701" lon="2.73072">
        <ele>178.13</ele>
        <time>2022-05-14T10:03:46Z</time>
      </trkpt>
      <trkpt lat="48.35708" lon="2.73063">
        <ele>176.7</ele>
        <time>2022-05-14T10:04:32Z</time>
      </trkpt>
      <trkpt lat="48.35708" lon="2.73049">
        <ele>176.82</ele>
        <time>2022-05-14T10:04:45Z</time>
      </trkpt>
      <trkpt lat="48.3571" lon="2.73063">
        <ele>176.9</ele>
        <time>2022-05-14T10:04:58Z</time>
      </trkpt>
      <trkpt lat="48.35702" lon="2.73071">
        <ele>178.13</ele>
        <time>2022-05-14T10:05:21Z</time>
      </trkpt>
      <trkpt lat="48.35692" lon="2.73073">
        <ele>177.08</ele>
        <time>2022-05-14T10:05:29Z</time>
      </trkpt>
      <trkpt lat="48.35687" lon="2.73084">
        <ele>176.86</ele>
        <time>2022-05-14T10:05:50Z</time>
      </trkpt>
      <trkpt lat="48.35693" lon="2.73095">
        <ele>175.22</ele>
        <time>2022-05-14T10:06:57Z</time>
      </trkpt>
      <trkpt lat="48.35702" lon="2.73089">
        <ele>181.7</ele>
        <time>2022-05-14T10:07:20Z</time>
      </trkpt>
      <trkpt lat="48.35701" lon="2.73095">
        <ele>171.56</ele>
        <time>2022-05-14T10:09:21Z</time>
      </trkpt>
      <trkpt lat="48.35692" lon="2.73093">
        <ele>173.78</ele>
        <time>2022-05-14T10:09:45Z</time>
      </trkpt>
      <trkpt lat="48.35686" lon="2.73083">
        <ele>174.9</ele>
        <time>2022-05-14T10:10:30Z</time>
      </trkpt>
      <trkpt lat="48.35684" lon="2.73069">
        <ele>175.09</ele>
        <time>2022-05-14T10:10:37Z</time>
      </trkpt>
      <trkpt lat="48.35677" lon="2.73059">
        <ele>175.75</ele>
        <time>2022-05-14T10:10:45Z</time>
      </trkpt>
      <trkpt lat="48.3567" lon="2.7305">
        <ele>176.32</ele>
        <time>2022-05-14T10:10:52Z</time>
      </trkpt>
      <trkpt lat="48.35664" lon="2.7304">
        <ele>177.04</ele>
        <time>2022-05-14T10:11:13Z</time>
      </trkpt>
      <trkpt lat="48.35658" lon="2.7305">
        <ele>176.67</ele>
        <time>2022-05-14T10:12:54.999Z</time>
      </trkpt>
      <trkpt lat="48.3565" lon="2.73043">
        <ele>175.01</ele>
        <time>2022-05-14T10:13:24.999Z</time>
      </trkpt>
      <trkpt lat="48.35641" lon="2.73042">
        <ele>173.14</ele>
        <time>2022-05-14T10:13:34.999Z</time>
      </trkpt>
      <trkpt lat="48.35633" lon="2.73034">
        <ele>168.65</ele>
        <time>2022-05-14T10:14:06.999Z</time>
      </trkpt>
      <trkpt lat="48.3563" lon="2.7302">
        <ele>166.32</ele>
        <time>2022-05-14T10:14:37.999Z</time>
      </trkpt>
      <trkpt lat="48.35621" lon="2.73019">
        <ele>162.46</ele>
        <time>2022-05-14T10:15:19.999Z</time>
      </trkpt>
      <trkpt lat="48.35612" lon="2.73014">
        <ele>159.87</ele>
        <time>2022-05-14T10:15:32.999Z</time>
      </trkpt>
      <trkpt lat="48.35606" lon="2.73004">
        <ele>158.47</ele>
        <time>2022-05-14T10:15:45.999Z</time>
      </trkpt>
      <trkpt lat="48.356" lon="2.72992">
        <ele>157.13</ele>
        <time>2022-05-14T10:16:01.999Z</time>
      </trkpt>
      <trkpt lat="48.35593" lon="2.72983">
        <ele>154.31</ele>
        <time>2022-05-14T10:17:05.999Z</time>
      </trkpt>
      <trkpt lat="48.35586" lon="2.72973">
        <ele>149.47</ele>
        <time>2022-05-14T10:17:34.999Z</time>
      </trkpt>
      <trkpt lat="48.35577" lon="2.72971">
        <ele>147.95</ele>
        <time>2022-05-14T10:17:43.999Z</time>
      </trkpt>
      <trkpt lat="48.35567" lon="2.72971">
        <ele>146.54</ele>
        <time>2022-05-14T10:17:53.999Z</time>
      </trkpt>
      <trkpt lat="48.35558" lon="2.7297">
        <ele>144.37</ele>
        <time>2022-05-14T10:18:02.999Z</time>
      </trkpt>
      <trkpt lat="48.3555" lon="2.72964">
        <ele>140.98</ele>
        <time>2022-05-14T10:18:12.999Z</time>
      </trkpt>
      <trkpt lat="48.35542" lon="2.72956">
        <ele>139.53</ele>
        <time>2022-05-14T10:18:23.999Z</time>
      </trkpt>
      <trkpt lat="48.35534" lon="2.72948">
        <ele>140.31</ele>
        <time>2022-05-14T10:18:30.999Z</time>
      </trkpt>
      <trkpt lat="48.35525" lon="2.72939">
        <ele>139.04</ele>
        <time>2022-05-14T10:18:38.999Z</time>
      </trkpt>
      <trkpt lat="48.35517" lon="2.72931">
        <ele>138.5</ele>
        <time>2022-05-14T10:18:45.999Z</time>
      </trkpt>
      <trkpt lat="48.35508" lon="2.72926">
        <ele>136.66</ele>
        <time>2022-05-14T10:18:53.999Z</time>
      </trkpt>
      <trkpt lat="48.35501" lon="2.72915">
        <ele>135.74</ele>
        <time>2022-05-14T10:19:00.999Z</time>
      </trkpt>
      <trkpt lat="48.35497" lon="2.72903">
        <ele>136.06</ele>
        <time>2022-05-14T10:19:07.999Z</time>
      </trkpt>
      <trkpt lat="48.35492" lon="2.72916">
        <ele>135.39</ele>
        <time>2022-05-14T10:20:17.999Z</time>
      </trkpt>
      <trkpt lat="48.35485" lon="2.72925">
        <ele>135.17</ele>
        <time>2022-05-14T10:20:24.999Z</time>
      </trkpt>
      <trkpt lat="48.3548" lon="2.72937">
        <ele>134.04</ele>
        <time>2022-05-14T10:20:30.999Z</time>
      </trkpt>
      <trkpt lat="48.35472" lon="2.72946">
        <ele>133.9</ele>
        <time>2022-05-14T10:20:39.999Z</time>
      </trkpt>
      <trkpt lat="48.35464" lon="2.72955">
        <ele>133.39</ele>
        <time>2022-05-14T10:20:49.999Z</time>
      </trkpt>
      <trkpt lat="48.35456" lon="2.72961">
        <ele>133.21</ele>
        <time>2022-05-14T10:20:56.999Z</time>
      </trkpt>
      <trkpt lat="48.35448" lon="2.72969">
        <ele>132.21</ele>
        <time>2022-05-14T10:21:04.999Z</time>
      </trkpt>
      <trkpt lat="48.35439" lon="2.72979">
        <ele>132.15</ele>
        <time>2022-05-14T10:21:12.999Z</time>
      </trkpt>
      <trkpt lat="48.35432" lon="2.72985">
        <ele>131.27</ele>
        <time>2022-05-14T10:21:21.999Z</time>
      </trkpt>
      <trkpt lat="48.35424" lon="2.72993">
        <ele>132.14</ele>
        <time>2022-05-14T10:21:28.999Z</time>
      </trkpt>
      <trkpt lat="48.35416" lon="2.73002">
        <ele>133.44</ele>
        <time>2022-05-14T10:21:36.999Z</time>
      </trkpt>
      <trkpt lat="48.35409" lon="2.73013">
        <ele>134.48</ele>
        <time>2022-05-14T10:21:45.999Z</time>
      </trkpt>
      <trkpt lat="48.35402" lon="2.7302">
        <ele>134.79</ele>
        <time>2022-05-14T10:21:55.999Z</time>
      </trkpt>
      <trkpt lat="48.35393" lon="2.73029">
        <ele>135.52</ele>
        <time>2022-05-14T10:22:04.999Z</time>
      </trkpt>
      <trkpt lat="48.35385" lon="2.73038">
        <ele>135.28</ele>
        <time>2022-05-14T10:22:13.999Z</time>
      </trkpt>
      <trkpt lat="48.35377" lon="2.73045">
        <ele>137.01</ele>
        <time>2022-05-14T10:22:22.999Z</time>
      </trkpt>
      <trkpt lat="48.35369" lon="2.73037">
        <ele>137.93</ele>
        <time>2022-05-14T10:22:37.999Z</time>
      </trkpt>
      <trkpt lat="48.35362" lon="2.73028">
        <ele>137.88</ele>
        <time>2022-05-14T10:22:49.999Z</time>
      </trkpt>
      <trkpt lat="48.35353" lon="2.73026">
        <ele>141.02</ele>
        <time>2022-05-14T10:23:09.999Z</time>
      </trkpt>
      <trkpt lat="48.35344" lon="2.73022">
        <ele>142.53</ele>
        <time>2022-05-14T10:23:24.999Z</time>
      </trkpt>
      <trkpt lat="48.35341" lon="2.73037">
        <ele>143.6</ele>
        <time>2022-05-14T10:23:50.999Z</time>
      </trkpt>
      <trkpt lat="48.35339" lon="2.73052">
        <ele>143.81</ele>
        <time>2022-05-14T10:24:01.999Z</time>
      </trkpt>
      <trkpt lat="48.3534" lon="2.73066">
        <ele>143.23</ele>
        <time>2022-05-14T10:24:10.999Z</time>
      </trkpt>
      <trkpt lat="48.35347" lon="2.73077">
        <ele>145.06</ele>
        <time>2022-05-14T10:24:25.999Z</time>
      </trkpt>
      <trkpt lat="48.35355" lon="2.73073">
        <ele>144.53</ele>
        <time>2022-05-14T10:25:23Z</time>
      </trkpt>
      <trkpt lat="48.35351" lon="2.73061">
        <ele>145.34</ele>
        <time>2022-05-14T10:25:32Z</time>
      </trkpt>
      <trkpt lat="48.35352" lon="2.73075">
        <ele>145.42</ele>
        <time>2022-05-14T10:25:48Z</time>
      </trkpt>
      <trkpt lat="48.35357" lon="2.73086">
        <ele>146.14</ele>
        <time>2022-05-14T10:25:56Z</time>
      </trkpt>
      <trkpt lat="48.35358" lon="2.73101">
        <ele>145.72</ele>
        <time>2022-05-14T10:26:18Z</time>
      </trkpt>
      <trkpt lat="48.35354" lon="2.73088">
        <ele>146.06</ele>
        <time>2022-05-14T10:27:19Z</time>
      </trkpt>
      <trkpt lat="48.35351" lon="2.73075">
        <ele>146.23</ele>
        <time>2022-05-14T10:27:28Z</time>
      </trkpt>
      <trkpt lat="48.35342" lon="2.73076">
        <ele>145.48</ele>
        <time>2022-05-14T10:28:01Z</time>
      </trkpt>
      <trkpt lat="48.35332" lon="2.73079">
        <ele>146.04</ele>
        <time>2022-05-14T10:28:08Z</time>
      </trkpt>
      <trkpt lat="48.35325" lon="2.7307">
        <ele>146.4</ele>
        <time>2022-05-14T10:28:16Z</time>
      </trkpt>
      <trkpt lat="48.35319" lon="2.7306">
        <ele>147.03</ele>
        <time>2022-05-14T10:28:29Z</time>
      </trkpt>
      <trkpt lat="48.35322" lon="2.73047">
        <ele>146.73</ele>
        <time>2022-05-14T10:28:47Z</time>
      </trkpt>
      <trkpt lat="48.35326" lon="2.73033">
        <ele>146.36</ele>
        <time>2022-05-14T10:29:05Z</time>
      </trkpt>
      <trkpt lat="48.35328" lon="2.7302">
        <ele>147.42</ele>
        <time>2022-05-14T10:29:16Z</time>
      </trkpt>
      <trkpt lat="48.35325" lon="2.73006">
        <ele>145.68</ele>
        <time>2022-05-14T10:29:45Z</time>
      </trkpt>
      <trkpt lat="48.35333" lon="2.72996">
        <ele>144.5</ele>
        <time>2022-05-14T10:29:53Z</time>
      </trkpt>
      <trkpt lat="48.3534" lon="2.72986">
        <ele>142.52</ele>
        <time>2022-05-14T10:30:12Z</time>
      </trkpt>
      <trkpt lat="48.35347" lon="2.72974">
        <ele>143.27</ele>
        <time>2022-05-14T10:30:21Z</time>
      </trkpt>
      <trkpt lat="48.35348" lon="2.72961">
        <ele>142.46</ele>
        <time>2022-05-14T10:30:30Z</time>
      </trkpt>
      <trkpt lat="48.35348" lon="2.72946">
        <ele>141.25</ele>
        <time>2022-05-14T10:30:39Z</time>
      </trkpt>
      <trkpt lat="48.35346" lon="2.72933">
        <ele>140.17</ele>
        <time>2022-05-14T10:30:57Z</time>
      </trkpt>
      <trkpt lat="48.35338" lon="2.72922">
        <ele>139.71</ele>
        <time>2022-05-14T10:31:07Z</time>
      </trkpt>
      <trkpt lat="48.35331" lon="2.72911">
        <ele>139.66</ele>
        <time>2022-05-14T10:31:14Z</time>
      </trkpt>
      <trkpt lat="48.35323" lon="2.72904">
        <ele>140.05</ele>
        <time>2022-05-14T10:31:21Z</time>
      </trkpt>
      <trkpt lat="48.35323" lon="2.7289">
        <ele>139.5</ele>
        <time>2022-05-14T10:31:31Z</time>
      </trkpt>
      <trkpt lat="48.35331" lon="2.72882">
        <ele>137.82</ele>
        <time>2022-05-14T10:31:39Z</time>
      </trkpt>
      <trkpt lat="48.35339" lon="2.72875">
        <ele>136.51</ele>
        <time>2022-05-14T10:31:48Z</time>
      </trkpt>
      <trkpt lat="48.35347" lon="2.72867">
        <ele>136.47</ele>
        <time>2022-05-14T10:31:56Z</time>
      </trkpt>
      <trkpt lat="48.35354" lon="2.72858">
        <ele>135.42</ele>
        <time>2022-05-14T10:32:04Z</time>
      </trkpt>
      <trkpt lat="48.35362" lon="2.72848">
        <ele>135.66</ele>
        <time>2022-05-14T10:32:12Z</time>
      </trkpt>
      <trkpt lat="48.35368" lon="2.72838">
        <ele>135.04</ele>
        <time>2022-05-14T10:32:20Z</time>
      </trkpt>
      <trkpt lat="48.35375" lon="2.72827">
        <ele>133.4</ele>
        <time>2022-05-14T10:32:28Z</time>
      </trkpt>
      <trkpt lat="48.35382" lon="2.72817">
        <ele>132.78</ele>
        <time>2022-05-14T10:32:37Z</time>
      </trkpt>
    </trkseg>
  </trk>
</gpx>